sensor_id;sensor_type;location;lat;lon;timestamp;P1;durP1;ratioP1;P2;durP2;ratioP2
69172;SDS011;56280;49.662;8.408;2022-09-09T00:00:14;7.20;;;2.57;;
69172;SDS011;56280;49.662;8.408;2022-09-09T00:07:59;4.07;;;1.93;;
69172;SDS011;56280;49.662;8.408;2022-09-09T00:10:29;7.53;;;2.50;;
69172;SDS011;56280;49.662;8.408;2022-09-09T00:13:06;5.53;;;2.15;;
69172;SDS011;56280;49.662;8.408;2022-09-09T00:18:33;5.07;;;2.00;;
69172;SDS011;56280;49.662;8.408;2022-09-09T00:21:22;5.50;;;2.35;;
69172;SDS011;56280;49.662;8.408;2022-09-09T00:24:00;5.85;;;2.15;;
69172;SDS011;56280;49.662;8.408;2022-09-09T00:26:42;4.68;;;1.80;;
69172;SDS011;56280;49.662;8.408;2022-09-09T00:29:33;4.70;;;1.90;;
69172;SDS011;56280;49.662;8.408;2022-09-09T00:32:16;3.97;;;1.60;;
69172;SDS011;56280;49.662;8.408;2022-09-09T00:35:00;3.65;;;1.60;;
69172;SDS011;56280;49.662;8.408;2022-09-09T00:37:28;4.85;;;1.70;;
69172;SDS011;56280;49.662;8.408;2022-09-09T00:39:57;4.80;;;1.80;;
69172;SDS011;56280;49.662;8.408;2022-09-09T00:47:59;5.00;;;2.03;;
69172;SDS011;56280;49.662;8.408;2022-09-09T00:50:50;6.30;;;1.65;;
69172;SDS011;56280;49.662;8.408;2022-09-09T00:53:39;6.65;;;1.73;;
69172;SDS011;56280;49.662;8.408;2022-09-09T00:56:20;5.63;;;1.80;;
69172;SDS011;56280;49.662;8.408;2022-09-09T00:59:03;4.53;;;1.93;;
69172;SDS011;56280;49.662;8.408;2022-09-09T01:01:39;7.05;;;1.98;;
69172;SDS011;56280;49.662;8.408;2022-09-09T01:04:07;7.65;;;2.05;;
69172;SDS011;56280;49.662;8.408;2022-09-09T01:06:41;4.17;;;1.90;;
69172;SDS011;56280;49.662;8.408;2022-09-09T01:09:26;7.10;;;2.15;;
69172;SDS011;56280;49.662;8.408;2022-09-09T01:12:12;6.97;;;2.20;;
69172;SDS011;56280;49.662;8.408;2022-09-09T01:14:50;4.95;;;1.98;;
69172;SDS011;56280;49.662;8.408;2022-09-09T01:17:34;7.93;;;2.15;;
69172;SDS011;56280;49.662;8.408;2022-09-09T01:27:50;4.00;;;2.00;;
69172;SDS011;56280;49.662;8.408;2022-09-09T01:30:18;5.97;;;2.42;;
69172;SDS011;56280;49.662;8.408;2022-09-09T01:32:46;5.88;;;2.30;;
69172;SDS011;56280;49.662;8.408;2022-09-09T01:37:56;4.72;;;2.00;;
69172;SDS011;56280;49.662;8.408;2022-09-09T01:40:23;5.50;;;2.10;;
69172;SDS011;56280;49.662;8.408;2022-09-09T01:42:50;5.55;;;2.15;;
69172;SDS011;56280;49.662;8.408;2022-09-09T01:45:16;6.47;;;2.03;;
69172;SDS011;56280;49.662;8.408;2022-09-09T01:47:41;6.07;;;2.00;;
69172;SDS011;56280;49.662;8.408;2022-09-09T01:50:08;5.68;;;2.00;;
69172;SDS011;56280;49.662;8.408;2022-09-09T01:52:36;5.60;;;1.90;;
69172;SDS011;56280;49.662;8.408;2022-09-09T01:55:02;5.53;;;2.00;;
69172;SDS011;56280;49.662;8.408;2022-09-09T01:57:40;4.03;;;1.67;;
69172;SDS011;56280;49.662;8.408;2022-09-09T02:00:20;4.95;;;1.98;;
69172;SDS011;56280;49.662;8.408;2022-09-09T02:02:53;6.43;;;2.03;;
69172;SDS011;56280;49.662;8.408;2022-09-09T02:08:36;6.15;;;2.05;;
69172;SDS011;56280;49.662;8.408;2022-09-09T02:13:38;6.78;;;2.10;;
69172;SDS011;56280;49.662;8.408;2022-09-09T02:16:07;5.10;;;1.88;;
69172;SDS011;56280;49.662;8.408;2022-09-09T02:18:56;7.40;;;2.10;;
69172;SDS011;56280;49.662;8.408;2022-09-09T02:21:26;4.43;;;1.80;;
69172;SDS011;56280;49.662;8.408;2022-09-09T02:23:53;5.65;;;2.15;;
69172;SDS011;56280;49.662;8.408;2022-09-09T02:26:22;6.05;;;2.00;;
69172;SDS011;56280;49.662;8.408;2022-09-09T02:28:49;6.38;;;2.13;;
69172;SDS011;56280;49.662;8.408;2022-09-09T02:31:17;6.63;;;2.37;;
69172;SDS011;56280;49.662;8.408;2022-09-09T02:33:46;6.07;;;2.00;;
69172;SDS011;56280;49.662;8.408;2022-09-09T02:36:17;4.40;;;2.30;;
69172;SDS011;56280;49.662;8.408;2022-09-09T02:38:45;5.38;;;2.10;;
69172;SDS011;56280;49.662;8.408;2022-09-09T02:41:16;4.18;;;2.05;;
69172;SDS011;56280;49.662;8.408;2022-09-09T02:43:44;4.27;;;2.00;;
69172;SDS011;56280;49.662;8.408;2022-09-09T02:46:24;4.77;;;1.90;;
69172;SDS011;56280;49.662;8.408;2022-09-09T02:49:03;7.60;;;2.22;;
69172;SDS011;56280;49.662;8.408;2022-09-09T02:56:33;6.53;;;1.87;;
69172;SDS011;56280;49.662;8.408;2022-09-09T02:59:05;7.95;;;1.90;;
69172;SDS011;56280;49.662;8.408;2022-09-09T03:01:30;6.40;;;2.07;;
69172;SDS011;56280;49.662;8.408;2022-09-09T03:03:56;4.38;;;1.67;;
69172;SDS011;56280;49.662;8.408;2022-09-09T03:06:22;4.00;;;1.70;;
69172;SDS011;56280;49.662;8.408;2022-09-09T03:08:47;7.03;;;1.80;;
69172;SDS011;56280;49.662;8.408;2022-09-09T03:11:14;4.97;;;1.77;;
69172;SDS011;56280;49.662;8.408;2022-09-09T03:13:39;4.17;;;1.57;;
69172;SDS011;56280;49.662;8.408;2022-09-09T03:16:04;5.07;;;1.90;;
69172;SDS011;56280;49.662;8.408;2022-09-09T03:18:30;5.70;;;1.85;;
69172;SDS011;56280;49.662;8.408;2022-09-09T03:20:56;4.88;;;1.73;;
69172;SDS011;56280;49.662;8.408;2022-09-09T03:23:22;5.00;;;1.80;;
69172;SDS011;56280;49.662;8.408;2022-09-09T03:25:48;4.43;;;1.50;;
69172;SDS011;56280;49.662;8.408;2022-09-09T03:28:17;4.80;;;1.40;;
69172;SDS011;56280;49.662;8.408;2022-09-09T03:30:42;5.03;;;1.50;;
69172;SDS011;56280;49.662;8.408;2022-09-09T03:33:08;4.87;;;1.40;;
69172;SDS011;56280;49.662;8.408;2022-09-09T03:35:33;6.00;;;1.70;;
69172;SDS011;56280;49.662;8.408;2022-09-09T03:37:58;4.70;;;1.50;;
69172;SDS011;56280;49.662;8.408;2022-09-09T03:40:25;4.47;;;1.58;;
69172;SDS011;56280;49.662;8.408;2022-09-09T03:42:51;5.18;;;1.63;;
69172;SDS011;56280;49.662;8.408;2022-09-09T03:45:16;5.50;;;1.50;;
69172;SDS011;56280;49.662;8.408;2022-09-09T03:47:41;5.73;;;1.70;;
69172;SDS011;56280;49.662;8.408;2022-09-09T03:50:07;5.07;;;1.60;;
69172;SDS011;56280;49.662;8.408;2022-09-09T03:52:37;7.72;;;1.70;;
69172;SDS011;56280;49.662;8.408;2022-09-09T03:55:05;6.53;;;1.55;;
69172;SDS011;56280;49.662;8.408;2022-09-09T03:57:31;7.20;;;1.63;;
69172;SDS011;56280;49.662;8.408;2022-09-09T03:59:59;6.82;;;2.00;;
69172;SDS011;56280;49.662;8.408;2022-09-09T04:02:25;6.28;;;1.60;;
69172;SDS011;56280;49.662;8.408;2022-09-09T04:04:51;6.33;;;1.83;;
69172;SDS011;56280;49.662;8.408;2022-09-09T04:07:16;6.30;;;1.80;;
69172;SDS011;56280;49.662;8.408;2022-09-09T04:09:41;7.93;;;2.07;;
69172;SDS011;56280;49.662;8.408;2022-09-09T04:12:07;6.68;;;2.10;;
69172;SDS011;56280;49.662;8.408;2022-09-09T04:14:33;7.40;;;1.97;;
69172;SDS011;56280;49.662;8.408;2022-09-09T04:16:58;3.87;;;1.93;;
69172;SDS011;56280;49.662;8.408;2022-09-09T04:19:24;5.75;;;2.00;;
69172;SDS011;56280;49.662;8.408;2022-09-09T04:21:50;5.72;;;1.63;;
69172;SDS011;56280;49.662;8.408;2022-09-09T04:24:16;7.43;;;1.97;;
69172;SDS011;56280;49.662;8.408;2022-09-09T04:26:42;5.03;;;1.73;;
69172;SDS011;56280;49.662;8.408;2022-09-09T04:29:08;4.07;;;1.52;;
69172;SDS011;56280;49.662;8.408;2022-09-09T04:31:33;6.70;;;1.92;;
69172;SDS011;56280;49.662;8.408;2022-09-09T04:33:58;4.17;;;1.60;;
69172;SDS011;56280;49.662;8.408;2022-09-09T04:36:29;7.25;;;2.00;;
69172;SDS011;56280;49.662;8.408;2022-09-09T04:38:55;5.40;;;1.67;;
69172;SDS011;56280;49.662;8.408;2022-09-09T04:41:20;6.87;;;2.03;;
69172;SDS011;56280;49.662;8.408;2022-09-09T04:43:46;4.67;;;1.83;;
69172;SDS011;56280;49.662;8.408;2022-09-09T04:46:11;6.13;;;2.10;;
69172;SDS011;56280;49.662;8.408;2022-09-09T04:48:36;5.53;;;1.75;;
69172;SDS011;56280;49.662;8.408;2022-09-09T04:51:03;5.77;;;1.90;;
69172;SDS011;56280;49.662;8.408;2022-09-09T04:53:29;5.63;;;1.50;;
69172;SDS011;56280;49.662;8.408;2022-09-09T04:56:05;6.63;;;1.50;;
69172;SDS011;56280;49.662;8.408;2022-09-09T04:58:38;4.68;;;1.60;;
69172;SDS011;56280;49.662;8.408;2022-09-09T05:01:07;5.93;;;1.75;;
69172;SDS011;56280;49.662;8.408;2022-09-09T05:03:38;6.85;;;1.42;;
69172;SDS011;56280;49.662;8.408;2022-09-09T05:06:07;3.88;;;1.27;;
69172;SDS011;56280;49.662;8.408;2022-09-09T05:08:41;5.77;;;1.67;;
69172;SDS011;56280;49.662;8.408;2022-09-09T05:11:17;4.00;;;1.30;;
69172;SDS011;56280;49.662;8.408;2022-09-09T05:13:50;4.43;;;1.70;;
69172;SDS011;56280;49.662;8.408;2022-09-09T05:16:16;6.93;;;1.52;;
69172;SDS011;56280;49.662;8.408;2022-09-09T05:18:43;5.47;;;1.50;;
69172;SDS011;56280;49.662;8.408;2022-09-09T05:21:09;5.88;;;1.25;;
69172;SDS011;56280;49.662;8.408;2022-09-09T05:23:38;6.63;;;1.63;;
69172;SDS011;56280;49.662;8.408;2022-09-09T05:26:04;4.10;;;1.30;;
69172;SDS011;56280;49.662;8.408;2022-09-09T05:28:33;5.43;;;1.27;;
69172;SDS011;56280;49.662;8.408;2022-09-09T05:31:01;3.88;;;1.60;;
69172;SDS011;56280;49.662;8.408;2022-09-09T05:33:32;5.75;;;1.50;;
69172;SDS011;56280;49.662;8.408;2022-09-09T05:35:59;5.15;;;1.40;;
69172;SDS011;56280;49.662;8.408;2022-09-09T05:38:30;6.45;;;1.65;;
69172;SDS011;56280;49.662;8.408;2022-09-09T05:40:59;5.57;;;1.57;;
69172;SDS011;56280;49.662;8.408;2022-09-09T05:43:25;4.85;;;1.40;;
69172;SDS011;56280;49.662;8.408;2022-09-09T05:46:01;6.80;;;1.52;;
69172;SDS011;56280;49.662;8.408;2022-09-09T05:48:34;6.70;;;1.50;;
69172;SDS011;56280;49.662;8.408;2022-09-09T05:51:02;4.07;;;1.30;;
69172;SDS011;56280;49.662;8.408;2022-09-09T05:53:28;5.17;;;1.50;;
69172;SDS011;56280;49.662;8.408;2022-09-09T05:56:02;6.10;;;1.42;;
69172;SDS011;56280;49.662;8.408;2022-09-09T05:58:33;9.30;;;1.65;;
69172;SDS011;56280;49.662;8.408;2022-09-09T06:01:03;5.40;;;1.15;;
69172;SDS011;56280;49.662;8.408;2022-09-09T06:03:39;3.58;;;1.30;;
69172;SDS011;56280;49.662;8.408;2022-09-09T06:06:09;5.20;;;1.43;;
69172;SDS011;56280;49.662;8.408;2022-09-09T06:08:37;5.05;;;1.23;;
69172;SDS011;56280;49.662;8.408;2022-09-09T06:11:07;4.72;;;1.30;;
69172;SDS011;56280;49.662;8.408;2022-09-09T06:13:34;5.18;;;1.33;;
69172;SDS011;56280;49.662;8.408;2022-09-09T06:16:02;4.47;;;1.20;;
69172;SDS011;56280;49.662;8.408;2022-09-09T06:18:27;4.97;;;1.40;;
69172;SDS011;56280;49.662;8.408;2022-09-09T06:21:00;5.17;;;1.20;;
69172;SDS011;56280;49.662;8.408;2022-09-09T06:23:31;7.95;;;1.50;;
69172;SDS011;56280;49.662;8.408;2022-09-09T06:26:18;4.55;;;1.20;;
69172;SDS011;56280;49.662;8.408;2022-09-09T06:28:58;5.50;;;1.70;;
69172;SDS011;56280;49.662;8.408;2022-09-09T06:31:27;5.38;;;1.40;;
69172;SDS011;56280;49.662;8.408;2022-09-09T06:34:07;5.00;;;1.13;;
69172;SDS011;56280;49.662;8.408;2022-09-09T06:36:34;5.00;;;1.20;;
69172;SDS011;56280;49.662;8.408;2022-09-09T06:39:05;5.13;;;1.40;;
69172;SDS011;56280;49.662;8.408;2022-09-09T06:41:32;5.23;;;1.13;;
69172;SDS011;56280;49.662;8.408;2022-09-09T06:44:01;4.80;;;1.20;;
69172;SDS011;56280;49.662;8.408;2022-09-09T06:46:30;3.75;;;1.10;;
69172;SDS011;56280;49.662;8.408;2022-09-09T06:48:58;7.35;;;1.23;;
69172;SDS011;56280;49.662;8.408;2022-09-09T06:51:33;4.60;;;1.33;;
69172;SDS011;56280;49.662;8.408;2022-09-09T06:54:00;5.83;;;1.20;;
69172;SDS011;56280;49.662;8.408;2022-09-09T06:56:34;4.60;;;1.30;;
69172;SDS011;56280;49.662;8.408;2022-09-09T06:59:01;4.40;;;1.10;;
69172;SDS011;56280;49.662;8.408;2022-09-09T07:01:30;4.53;;;1.30;;
69172;SDS011;56280;49.662;8.408;2022-09-09T07:03:57;4.63;;;1.20;;
69172;SDS011;56280;49.662;8.408;2022-09-09T07:06:25;4.23;;;1.20;;
69172;SDS011;56280;49.662;8.408;2022-09-09T07:08:56;7.90;;;1.65;;
69172;SDS011;56280;49.662;8.408;2022-09-09T07:11:24;6.50;;;1.67;;
69172;SDS011;56280;49.662;8.408;2022-09-09T07:13:54;4.47;;;1.17;;
69172;SDS011;56280;49.662;8.408;2022-09-09T07:16:21;5.57;;;1.45;;
69172;SDS011;56280;49.662;8.408;2022-09-09T07:18:50;6.27;;;1.50;;
69172;SDS011;56280;49.662;8.408;2022-09-09T07:21:17;4.78;;;1.20;;
69172;SDS011;56280;49.662;8.408;2022-09-09T07:23:43;6.80;;;1.30;;
69172;SDS011;56280;49.662;8.408;2022-09-09T07:26:10;4.87;;;1.60;;
69172;SDS011;56280;49.662;8.408;2022-09-09T07:28:37;5.22;;;1.30;;
69172;SDS011;56280;49.662;8.408;2022-09-09T07:31:03;4.70;;;1.30;;
69172;SDS011;56280;49.662;8.408;2022-09-09T07:33:29;5.10;;;1.40;;
69172;SDS011;56280;49.662;8.408;2022-09-09T07:36:03;6.53;;;1.50;;
69172;SDS011;56280;49.662;8.408;2022-09-09T07:38:31;4.63;;;1.30;;
69172;SDS011;56280;49.662;8.408;2022-09-09T07:41:03;9.52;;;1.80;;
69172;SDS011;56280;49.662;8.408;2022-09-09T07:43:30;6.32;;;1.42;;
69172;SDS011;56280;49.662;8.408;2022-09-09T07:45:59;6.73;;;1.37;;
69172;SDS011;56280;49.662;8.408;2022-09-09T07:48:28;5.15;;;1.35;;
69172;SDS011;56280;49.662;8.408;2022-09-09T07:51:02;7.03;;;1.40;;
69172;SDS011;56280;49.662;8.408;2022-09-09T07:53:35;6.68;;;1.30;;
69172;SDS011;56280;49.662;8.408;2022-09-09T07:56:05;5.97;;;1.27;;
69172;SDS011;56280;49.662;8.408;2022-09-09T07:58:38;6.38;;;1.55;;
69172;SDS011;56280;49.662;8.408;2022-09-09T08:01:17;4.90;;;1.70;;
69172;SDS011;56280;49.662;8.408;2022-09-09T08:03:45;6.30;;;1.63;;
69172;SDS011;56280;49.662;8.408;2022-09-09T08:06:12;4.20;;;1.30;;
69172;SDS011;56280;49.662;8.408;2022-09-09T08:08:38;4.88;;;1.40;;
69172;SDS011;56280;49.662;8.408;2022-09-09T08:11:07;5.80;;;1.80;;
69172;SDS011;56280;49.662;8.408;2022-09-09T08:13:35;5.82;;;1.33;;
69172;SDS011;56280;49.662;8.408;2022-09-09T08:16:08;6.68;;;1.60;;
69172;SDS011;56280;49.662;8.408;2022-09-09T08:18:36;8.43;;;1.42;;
69172;SDS011;56280;49.662;8.408;2022-09-09T08:21:09;7.25;;;1.50;;
69172;SDS011;56280;49.662;8.408;2022-09-09T08:23:36;8.38;;;1.80;;
69172;SDS011;56280;49.662;8.408;2022-09-09T08:26:05;6.28;;;1.63;;
69172;SDS011;56280;49.662;8.408;2022-09-09T08:28:31;6.82;;;1.40;;
69172;SDS011;56280;49.662;8.408;2022-09-09T08:31:04;7.67;;;1.57;;
69172;SDS011;56280;49.662;8.408;2022-09-09T08:33:37;6.07;;;1.50;;
69172;SDS011;56280;49.662;8.408;2022-09-09T08:36:03;5.30;;;1.30;;
69172;SDS011;56280;49.662;8.408;2022-09-09T08:38:30;4.87;;;1.53;;
69172;SDS011;56280;49.662;8.408;2022-09-09T08:40:57;5.23;;;1.30;;
69172;SDS011;56280;49.662;8.408;2022-09-09T08:43:32;6.15;;;1.30;;
69172;SDS011;56280;49.662;8.408;2022-09-09T08:46:09;5.57;;;1.23;;
69172;SDS011;56280;49.662;8.408;2022-09-09T08:48:53;5.28;;;1.40;;
69172;SDS011;56280;49.662;8.408;2022-09-09T08:51:25;5.25;;;1.33;;
69172;SDS011;56280;49.662;8.408;2022-09-09T08:53:54;5.32;;;1.30;;
69172;SDS011;56280;49.662;8.408;2022-09-09T08:56:22;7.63;;;1.55;;
69172;SDS011;56280;49.662;8.408;2022-09-09T08:58:51;6.10;;;1.20;;
69172;SDS011;56280;49.662;8.408;2022-09-09T09:09:33;8.55;;;1.27;;
69172;SDS011;56280;49.662;8.408;2022-09-09T09:12:22;6.18;;;1.60;;
69172;SDS011;56280;49.662;8.408;2022-09-09T09:14:49;5.70;;;1.63;;
69172;SDS011;56280;49.662;8.408;2022-09-09T09:17:19;5.53;;;1.20;;
69172;SDS011;56280;49.662;8.408;2022-09-09T09:19:46;4.82;;;1.30;;
69172;SDS011;56280;49.662;8.408;2022-09-09T09:25:38;6.68;;;1.35;;
69172;SDS011;56280;49.662;8.408;2022-09-09T09:28:17;7.45;;;1.55;;
69172;SDS011;56280;49.662;8.408;2022-09-09T09:30:49;7.18;;;1.30;;
69172;SDS011;56280;49.662;8.408;2022-09-09T09:36:02;8.15;;;1.60;;
69172;SDS011;56280;49.662;8.408;2022-09-09T09:38:28;5.90;;;1.37;;
69172;SDS011;56280;49.662;8.408;2022-09-09T09:40:55;4.55;;;1.00;;
69172;SDS011;56280;49.662;8.408;2022-09-09T09:43:33;4.82;;;1.40;;
69172;SDS011;56280;49.662;8.408;2022-09-09T09:46:00;7.47;;;1.42;;
69172;SDS011;56280;49.662;8.408;2022-09-09T09:48:29;6.07;;;1.30;;
69172;SDS011;56280;49.662;8.408;2022-09-09T09:50:56;6.57;;;1.30;;
69172;SDS011;56280;49.662;8.408;2022-09-09T09:53:27;8.23;;;1.40;;
69172;SDS011;56280;49.662;8.408;2022-09-09T09:55:56;6.10;;;1.40;;
69172;SDS011;56280;49.662;8.408;2022-09-09T09:58:24;8.15;;;1.38;;
69172;SDS011;56280;49.662;8.408;2022-09-09T10:00:52;5.13;;;1.10;;
69172;SDS011;56280;49.662;8.408;2022-09-09T10:03:32;6.78;;;1.52;;
69172;SDS011;56280;49.662;8.408;2022-09-09T10:06:02;6.40;;;1.50;;
69172;SDS011;56280;49.662;8.408;2022-09-09T10:08:28;5.72;;;1.40;;
69172;SDS011;56280;49.662;8.408;2022-09-09T10:10:57;6.95;;;1.80;;
69172;SDS011;56280;49.662;8.408;2022-09-09T10:19:32;5.72;;;1.20;;
69172;SDS011;56280;49.662;8.408;2022-09-09T10:30:45;9.40;;;2.42;;
69172;SDS011;56280;49.662;8.408;2022-09-09T10:36:23;6.03;;;1.75;;
69172;SDS011;56280;49.662;8.408;2022-09-09T10:41:35;8.85;;;2.60;;
69172;SDS011;56280;49.662;8.408;2022-09-09T10:46:54;7.88;;;2.28;;
69172;SDS011;56280;49.662;8.408;2022-09-09T10:55:25;9.50;;;2.70;;
69172;SDS011;56280;49.662;8.408;2022-09-09T10:58:03;7.18;;;1.40;;
69172;SDS011;56280;49.662;8.408;2022-09-09T11:00:51;10.13;;;3.42;;
69172;SDS011;56280;49.662;8.408;2022-09-09T11:03:23;9.35;;;2.30;;
69172;SDS011;56280;49.662;8.408;2022-09-09T11:05:52;7.93;;;1.88;;
69172;SDS011;56280;49.662;8.408;2022-09-09T11:08:23;7.60;;;2.22;;
69172;SDS011;56280;49.662;8.408;2022-09-09T11:10:53;6.47;;;1.60;;
69172;SDS011;56280;49.662;8.408;2022-09-09T11:13:55;4.67;;;1.43;;
69172;SDS011;56280;49.662;8.408;2022-09-09T11:16:42;8.25;;;1.88;;
69172;SDS011;56280;49.662;8.408;2022-09-09T11:19:30;6.07;;;1.83;;
69172;SDS011;56280;49.662;8.408;2022-09-09T11:22:00;7.55;;;1.70;;
69172;SDS011;56280;49.662;8.408;2022-09-09T11:27:08;4.97;;;1.30;;
69172;SDS011;56280;49.662;8.408;2022-09-09T11:32:34;5.30;;;1.50;;
69172;SDS011;56280;49.662;8.408;2022-09-09T11:35:16;5.38;;;1.58;;
69172;SDS011;56280;49.662;8.408;2022-09-09T11:37:49;5.85;;;1.45;;
69172;SDS011;56280;49.662;8.408;2022-09-09T11:40:38;5.72;;;1.23;;
69172;SDS011;56280;49.662;8.408;2022-09-09T11:43:05;5.65;;;1.20;;
69172;SDS011;56280;49.662;8.408;2022-09-09T11:45:33;4.90;;;1.27;;
69172;SDS011;56280;49.662;8.408;2022-09-09T11:48:01;5.88;;;1.60;;
69172;SDS011;56280;49.662;8.408;2022-09-09T11:50:31;3.92;;;1.35;;
69172;SDS011;56280;49.662;8.408;2022-09-09T11:53:03;5.43;;;1.58;;
69172;SDS011;56280;49.662;8.408;2022-09-09T11:56:06;6.70;;;1.98;;
69172;SDS011;56280;49.662;8.408;2022-09-09T11:58:39;6.15;;;1.50;;
69172;SDS011;56280;49.662;8.408;2022-09-09T12:04:05;6.38;;;1.42;;
69172;SDS011;56280;49.662;8.408;2022-09-09T12:06:48;6.95;;;1.30;;
69172;SDS011;56280;49.662;8.408;2022-09-09T12:09:22;5.80;;;1.33;;
69172;SDS011;56280;49.662;8.408;2022-09-09T12:11:53;5.05;;;1.30;;
69172;SDS011;56280;49.662;8.408;2022-09-09T12:14:35;6.75;;;1.52;;
69172;SDS011;56280;49.662;8.408;2022-09-09T12:17:16;6.05;;;1.40;;
69172;SDS011;56280;49.662;8.408;2022-09-09T12:19:44;5.97;;;1.20;;
69172;SDS011;56280;49.662;8.408;2022-09-09T12:22:14;4.82;;;1.23;;
69172;SDS011;56280;49.662;8.408;2022-09-09T12:24:56;5.03;;;1.37;;
69172;SDS011;56280;49.662;8.408;2022-09-09T12:30:31;4.32;;;1.00;;
69172;SDS011;56280;49.662;8.408;2022-09-09T12:33:13;4.93;;;1.05;;
69172;SDS011;56280;49.662;8.408;2022-09-09T12:35:43;4.32;;;1.00;;
69172;SDS011;56280;49.662;8.408;2022-09-09T12:38:15;5.83;;;1.33;;
69172;SDS011;56280;49.662;8.408;2022-09-09T12:40:54;4.32;;;0.98;;
69172;SDS011;56280;49.662;8.408;2022-09-09T12:43:22;6.28;;;1.20;;
69172;SDS011;56280;49.662;8.408;2022-09-09T12:45:49;4.10;;;1.08;;
69172;SDS011;56280;49.662;8.408;2022-09-09T12:48:22;3.85;;;1.20;;
69172;SDS011;56280;49.662;8.408;2022-09-09T12:50:53;3.80;;;1.10;;
69172;SDS011;56280;49.662;8.408;2022-09-09T12:53:25;3.90;;;1.23;;
69172;SDS011;56280;49.662;8.408;2022-09-09T12:58:24;4.47;;;0.90;;
69172;SDS011;56280;49.662;8.408;2022-09-09T13:00:53;6.30;;;1.63;;
69172;SDS011;56280;49.662;8.408;2022-09-09T13:03:22;7.83;;;1.40;;
69172;SDS011;56280;49.662;8.408;2022-09-09T13:05:49;5.43;;;1.35;;
69172;SDS011;56280;49.662;8.408;2022-09-09T13:08:16;5.65;;;1.30;;
69172;SDS011;56280;49.662;8.408;2022-09-09T13:13:32;3.10;;;1.08;;
69172;SDS011;56280;49.662;8.408;2022-09-09T13:16:00;4.77;;;1.10;;
69172;SDS011;56280;49.662;8.408;2022-09-09T13:18:29;5.38;;;1.23;;
69172;SDS011;56280;49.662;8.408;2022-09-09T13:20:58;6.88;;;1.80;;
69172;SDS011;56280;49.662;8.408;2022-09-09T13:23:26;5.38;;;1.23;;
69172;SDS011;56280;49.662;8.408;2022-09-09T13:25:55;6.63;;;1.73;;
69172;SDS011;56280;49.662;8.408;2022-09-09T13:28:22;6.97;;;1.55;;
69172;SDS011;56280;49.662;8.408;2022-09-09T13:30:59;4.97;;;1.42;;
69172;SDS011;56280;49.662;8.408;2022-09-09T13:33:44;4.05;;;1.30;;
69172;SDS011;56280;49.662;8.408;2022-09-09T13:36:09;3.87;;;1.27;;
69172;SDS011;56280;49.662;8.408;2022-09-09T13:38:38;3.40;;;0.82;;
69172;SDS011;56280;49.662;8.408;2022-09-09T13:41:06;4.07;;;1.30;;
69172;SDS011;56280;49.662;8.408;2022-09-09T13:43:37;4.63;;;1.43;;
69172;SDS011;56280;49.662;8.408;2022-09-09T13:48:57;3.80;;;0.95;;
69172;SDS011;56280;49.662;8.408;2022-09-09T13:51:32;4.47;;;1.17;;
69172;SDS011;56280;49.662;8.408;2022-09-09T13:54:05;3.13;;;0.80;;
69172;SDS011;56280;49.662;8.408;2022-09-09T13:56:34;4.17;;;0.90;;
69172;SDS011;56280;49.662;8.408;2022-09-09T13:59:00;5.82;;;1.38;;
69172;SDS011;56280;49.662;8.408;2022-09-09T14:01:27;3.15;;;0.95;;
69172;SDS011;56280;49.662;8.408;2022-09-09T14:03:53;5.37;;;0.90;;
69172;SDS011;56280;49.662;8.408;2022-09-09T14:06:18;5.03;;;1.30;;
69172;SDS011;56280;49.662;8.408;2022-09-09T14:08:46;4.88;;;0.90;;
69172;SDS011;56280;49.662;8.408;2022-09-09T14:11:12;4.28;;;1.33;;
69172;SDS011;56280;49.662;8.408;2022-09-09T14:13:38;3.65;;;0.93;;
69172;SDS011;56280;49.662;8.408;2022-09-09T14:16:04;3.95;;;0.90;;
69172;SDS011;56280;49.662;8.408;2022-09-09T14:18:30;4.90;;;0.83;;
69172;SDS011;56280;49.662;8.408;2022-09-09T14:20:55;4.77;;;0.80;;
69172;SDS011;56280;49.662;8.408;2022-09-09T14:23:22;4.40;;;0.75;;
69172;SDS011;56280;49.662;8.408;2022-09-09T14:25:48;5.20;;;1.00;;
69172;SDS011;56280;49.662;8.408;2022-09-09T14:28:14;4.40;;;1.07;;
69172;SDS011;56280;49.662;8.408;2022-09-09T14:30:40;4.43;;;1.30;;
69172;SDS011;56280;49.662;8.408;2022-09-09T14:33:10;5.30;;;1.30;;
69172;SDS011;56280;49.662;8.408;2022-09-09T14:35:37;5.10;;;1.58;;
69172;SDS011;56280;49.662;8.408;2022-09-09T14:38:03;4.68;;;1.65;;
69172;SDS011;56280;49.662;8.408;2022-09-09T14:40:29;4.40;;;1.27;;
69172;SDS011;56280;49.662;8.408;2022-09-09T14:42:54;5.20;;;1.20;;
69172;SDS011;56280;49.662;8.408;2022-09-09T14:45:21;4.88;;;1.17;;
69172;SDS011;56280;49.662;8.408;2022-09-09T14:47:46;3.73;;;1.00;;
69172;SDS011;56280;49.662;8.408;2022-09-09T14:50:12;5.13;;;1.03;;
69172;SDS011;56280;49.662;8.408;2022-09-09T14:52:38;3.65;;;0.80;;
69172;SDS011;56280;49.662;8.408;2022-09-09T14:55:04;5.47;;;1.10;;
69172;SDS011;56280;49.662;8.408;2022-09-09T14:57:30;4.13;;;0.90;;
69172;SDS011;56280;49.662;8.408;2022-09-09T14:59:55;4.53;;;1.10;;
69172;SDS011;56280;49.662;8.408;2022-09-09T15:02:21;4.20;;;1.10;;
69172;SDS011;56280;49.662;8.408;2022-09-09T15:04:47;4.30;;;1.10;;
69172;SDS011;56280;49.662;8.408;2022-09-09T15:07:12;3.07;;;0.87;;
69172;SDS011;56280;49.662;8.408;2022-09-09T15:09:37;4.23;;;0.90;;
69172;SDS011;56280;49.662;8.408;2022-09-09T15:12:03;5.50;;;1.13;;
69172;SDS011;56280;49.662;8.408;2022-09-09T15:14:29;4.90;;;1.00;;
69172;SDS011;56280;49.662;8.408;2022-09-09T15:16:55;4.45;;;1.13;;
69172;SDS011;56280;49.662;8.408;2022-09-09T15:19:20;3.53;;;1.07;;
69172;SDS011;56280;49.662;8.408;2022-09-09T15:21:46;3.97;;;1.20;;
69172;SDS011;56280;49.662;8.408;2022-09-09T15:24:12;2.88;;;0.93;;
69172;SDS011;56280;49.662;8.408;2022-09-09T15:26:38;4.30;;;1.10;;
69172;SDS011;56280;49.662;8.408;2022-09-09T15:29:03;3.83;;;0.97;;
69172;SDS011;56280;49.662;8.408;2022-09-09T15:31:30;3.53;;;0.80;;
69172;SDS011;56280;49.662;8.408;2022-09-09T15:33:57;5.57;;;1.30;;
69172;SDS011;56280;49.662;8.408;2022-09-09T15:36:29;4.63;;;1.60;;
69172;SDS011;56280;49.662;8.408;2022-09-09T15:39:02;5.80;;;2.85;;
69172;SDS011;56280;49.662;8.408;2022-09-09T15:41:29;5.85;;;1.85;;
69172;SDS011;56280;49.662;8.408;2022-09-09T15:43:56;3.63;;;1.30;;
69172;SDS011;56280;49.662;8.408;2022-09-09T15:48:53;3.90;;;1.00;;
69172;SDS011;56280;49.662;8.408;2022-09-09T15:51:29;3.10;;;0.93;;
69172;SDS011;56280;49.662;8.408;2022-09-09T15:53:55;3.10;;;0.60;;
69172;SDS011;56280;49.662;8.408;2022-09-09T15:56:21;4.55;;;1.20;;
69172;SDS011;56280;49.662;8.408;2022-09-09T15:58:47;2.95;;;0.85;;
69172;SDS011;56280;49.662;8.408;2022-09-09T16:01:12;3.63;;;0.70;;
69172;SDS011;56280;49.662;8.408;2022-09-09T16:03:39;3.10;;;0.80;;
69172;SDS011;56280;49.662;8.408;2022-09-09T16:06:07;3.40;;;0.90;;
69172;SDS011;56280;49.662;8.408;2022-09-09T16:08:38;2.72;;;0.80;;
69172;SDS011;56280;49.662;8.408;2022-09-09T16:13:38;4.60;;;0.90;;
69172;SDS011;56280;49.662;8.408;2022-09-09T16:16:04;3.30;;;0.95;;
69172;SDS011;56280;49.662;8.408;2022-09-09T16:18:34;3.08;;;0.90;;
69172;SDS011;56280;49.662;8.408;2022-09-09T16:21:08;3.97;;;0.80;;
69172;SDS011;56280;49.662;8.408;2022-09-09T16:23:38;3.40;;;0.80;;
69172;SDS011;56280;49.662;8.408;2022-09-09T16:26:04;3.10;;;0.90;;
69172;SDS011;56280;49.662;8.408;2022-09-09T16:28:30;3.00;;;0.80;;
69172;SDS011;56280;49.662;8.408;2022-09-09T16:30:55;5.37;;;0.83;;
69172;SDS011;56280;49.662;8.408;2022-09-09T16:33:20;3.83;;;0.87;;
69172;SDS011;56280;49.662;8.408;2022-09-09T16:35:47;4.53;;;0.98;;
69172;SDS011;56280;49.662;8.408;2022-09-09T16:38:14;4.03;;;1.10;;
69172;SDS011;56280;49.662;8.408;2022-09-09T16:40:40;3.92;;;1.00;;
69172;SDS011;56280;49.662;8.408;2022-09-09T16:43:06;3.83;;;1.00;;
69172;SDS011;56280;49.662;8.408;2022-09-09T16:45:32;3.05;;;0.80;;
69172;SDS011;56280;49.662;8.408;2022-09-09T16:47:58;3.22;;;0.90;;